sensor_id;sensor_type;location;lat;lon;timestamp;pressure;altitude;pressure_sealevel;temperature
45701;BMP280;36277;32.852;-116.998;2022-11-20T00:00:00;100143.88;;;22.96
45701;BMP280;36277;32.852;-116.998;2022-11-20T00:02:27;100143.59;;;23.27
45701;BMP280;36277;32.852;-116.998;2022-11-20T00:04:53;100149.88;;;23.50
45701;BMP280;36277;32.852;-116.998;2022-11-20T00:07:19;100156.53;;;23.70
45701;BMP280;36277;32.852;-116.998;2022-11-20T00:09:45;100151.03;;;23.85
45701;BMP280;36277;32.852;-116.998;2022-11-20T00:12:11;100154.81;;;23.98
45701;BMP280;36277;32.852;-116.998;2022-11-20T00:14:38;100150.72;;;24.09
45701;BMP280;36277;32.852;-116.998;2022-11-20T00:17:06;100161.06;;;24.21
45701;BMP280;36277;32.852;-116.998;2022-11-20T00:19:33;100164.56;;;24.29
45701;BMP280;36277;32.852;-116.998;2022-11-20T00:21:59;100169.78;;;24.39
45701;BMP280;36277;32.852;-116.998;2022-11-20T00:24:25;100173.47;;;24.46
45701;BMP280;36277;32.852;-116.998;2022-11-20T00:26:51;100180.63;;;24.26
45701;BMP280;36277;32.852;-116.998;2022-11-20T00:29:17;100173.34;;;24.18
45701;BMP280;36277;32.852;-116.998;2022-11-20T00:31:44;100182.41;;;23.69
45701;BMP280;36277;32.852;-116.998;2022-11-20T00:34:10;100180.78;;;22.87
45701;BMP280;36277;32.852;-116.998;2022-11-20T00:36:36;100192.97;;;22.31
45701;BMP280;36277;32.852;-116.998;2022-11-20T00:39:03;100186.19;;;22.95
45701;BMP280;36277;32.852;-116.998;2022-11-20T00:41:29;100185.94;;;23.26
45701;BMP280;36277;32.852;-116.998;2022-11-20T00:43:56;100189.69;;;23.48
45701;BMP280;36277;32.852;-116.998;2022-11-20T00:46:25;100198.44;;;23.66
45701;BMP280;36277;32.852;-116.998;2022-11-20T00:48:53;100194.34;;;23.76
45701;BMP280;36277;32.852;-116.998;2022-11-20T00:51:21;100191.16;;;23.87
45701;BMP280;36277;32.852;-116.998;2022-11-20T00:53:49;100202.72;;;23.97
45701;BMP280;36277;32.852;-116.998;2022-11-20T00:56:17;100197.13;;;24.05
45701;BMP280;36277;32.852;-116.998;2022-11-20T00:58:45;100196.38;;;24.11
45701;BMP280;36277;32.852;-116.998;2022-11-20T01:01:17;100215.16;;;24.22
45701;BMP280;36277;32.852;-116.998;2022-11-20T01:03:46;100213.94;;;24.24
45701;BMP280;36277;32.852;-116.998;2022-11-20T01:06:21;100221.91;;;24.34
45701;BMP280;36277;32.852;-116.998;2022-11-20T01:08:49;100229.78;;;24.37
45701;BMP280;36277;32.852;-116.998;2022-11-20T01:11:21;100220.75;;;24.43
45701;BMP280;36277;32.852;-116.998;2022-11-20T01:13:49;100227.78;;;24.45
45701;BMP280;36277;32.852;-116.998;2022-11-20T01:18:46;100234.22;;;23.51
45701;BMP280;36277;32.852;-116.998;2022-11-20T01:21:19;100236.41;;;23.41
45701;BMP280;36277;32.852;-116.998;2022-11-20T01:23:47;100240.06;;;23.34
45701;BMP280;36277;32.852;-116.998;2022-11-20T01:26:21;100243.38;;;23.52
45701;BMP280;36277;32.852;-116.998;2022-11-20T01:28:48;100248.41;;;23.63
45701;BMP280;36277;32.852;-116.998;2022-11-20T01:31:31;100248.63;;;23.76
45701;BMP280;36277;32.852;-116.998;2022-11-20T01:34:00;100247.91;;;23.82
45701;BMP280;36277;32.852;-116.998;2022-11-20T01:36:29;100257.78;;;23.91
45701;BMP280;36277;32.852;-116.998;2022-11-20T01:38:58;100259.78;;;23.97
45701;BMP280;36277;32.852;-116.998;2022-11-20T01:41:29;100258.16;;;24.02
45701;BMP280;36277;32.852;-116.998;2022-11-20T01:44:18;100268.81;;;24.05
45701;BMP280;36277;32.852;-116.998;2022-11-20T01:46:59;100271.66;;;24.12
45701;BMP280;36277;32.852;-116.998;2022-11-20T01:49:38;100264.94;;;24.14
45701;BMP280;36277;32.852;-116.998;2022-11-20T01:52:12;100273.66;;;24.17
45701;BMP280;36277;32.852;-116.998;2022-11-20T01:54:58;100275.84;;;24.22
45701;BMP280;36277;32.852;-116.998;2022-11-20T01:57:29;100279.47;;;24.22
45701;BMP280;36277;32.852;-116.998;2022-11-20T02:00:03;100281.63;;;24.27
45701;BMP280;36277;32.852;-116.998;2022-11-20T02:02:31;100288.88;;;24.28
45701;BMP280;36277;32.852;-116.998;2022-11-20T02:05:09;100301.91;;;24.34
45701;BMP280;36277;32.852;-116.998;2022-11-20T02:07:37;100299.97;;;24.34
45701;BMP280;36277;32.852;-116.998;2022-11-20T02:10:04;100294.09;;;24.37
45701;BMP280;36277;32.852;-116.998;2022-11-20T02:12:31;100303.91;;;24.40
45701;BMP280;36277;32.852;-116.998;2022-11-20T02:15:15;100302.19;;;24.39
45701;BMP280;36277;32.852;-116.998;2022-11-20T02:17:41;100310.09;;;24.42
45701;BMP280;36277;32.852;-116.998;2022-11-20T02:20:08;100309.72;;;24.45
45701;BMP280;36277;32.852;-116.998;2022-11-20T02:23:05;100315.91;;;24.47
45701;BMP280;36277;32.852;-116.998;2022-11-20T02:25:35;100313.50;;;24.44
45701;BMP280;36277;32.852;-116.998;2022-11-20T02:28:03;100318.81;;;24.45
45701;BMP280;36277;32.852;-116.998;2022-11-20T02:30:29;100322.28;;;24.47
45701;BMP280;36277;32.852;-116.998;2022-11-20T02:32:55;100331.22;;;24.49
45701;BMP280;36277;32.852;-116.998;2022-11-20T02:37:56;100329.97;;;24.52
45701;BMP280;36277;32.852;-116.998;2022-11-20T02:40:23;100333.78;;;24.51
45701;BMP280;36277;32.852;-116.998;2022-11-20T02:42:56;100328.94;;;24.53
45701;BMP280;36277;32.852;-116.998;2022-11-20T02:45:23;100336.53;;;24.51
45701;BMP280;36277;32.852;-116.998;2022-11-20T02:47:51;100339.31;;;24.51
45701;BMP280;36277;32.852;-116.998;2022-11-20T02:50:17;100347.59;;;24.51
45701;BMP280;36277;32.852;-116.998;2022-11-20T02:52:44;100341.88;;;24.52
45701;BMP280;36277;32.852;-116.998;2022-11-20T02:55:10;100358.44;;;24.52
45701;BMP280;36277;32.852;-116.998;2022-11-20T02:57:36;100357.41;;;24.53
45701;BMP280;36277;32.852;-116.998;2022-11-20T03:00:04;100358.06;;;24.55
45701;BMP280;36277;32.852;-116.998;2022-11-20T03:02:31;100357.41;;;24.53
45701;BMP280;36277;32.852;-116.998;2022-11-20T03:04:57;100357.19;;;24.55
45701;BMP280;36277;32.852;-116.998;2022-11-20T03:07:23;100366.34;;;24.55
45701;BMP280;36277;32.852;-116.998;2022-11-20T03:09:49;100357.19;;;24.55
45701;BMP280;36277;32.852;-116.998;2022-11-20T03:12:16;100360.81;;;24.55
45701;BMP280;36277;32.852;-116.998;2022-11-20T03:14:42;100363.75;;;24.54
45701;BMP280;36277;32.852;-116.998;2022-11-20T03:17:08;100360.81;;;24.55
45701;BMP280;36277;32.852;-116.998;2022-11-20T03:19:35;100362.72;;;24.55
45701;BMP280;36277;32.852;-116.998;2022-11-20T03:22:01;100366.13;;;24.57
45701;BMP280;36277;32.852;-116.998;2022-11-20T03:24:27;100369.94;;;24.56
45701;BMP280;36277;32.852;-116.998;2022-11-20T03:26:53;100364.44;;;24.56
45701;BMP280;36277;32.852;-116.998;2022-11-20T03:29:19;100371.88;;;24.55
45701;BMP280;36277;32.852;-116.998;2022-11-20T03:31:46;100369.09;;;24.55
45701;BMP280;36277;32.852;-116.998;2022-11-20T03:34:12;100375.47;;;24.56
45701;BMP280;36277;32.852;-116.998;2022-11-20T03:36:40;100375.47;;;24.56
45701;BMP280;36277;32.852;-116.998;2022-11-20T03:39:07;100375.47;;;24.56
45701;BMP280;36277;32.852;-116.998;2022-11-20T03:41:37;100370.41;;;24.59
45701;BMP280;36277;32.852;-116.998;2022-11-20T03:44:05;100382.69;;;24.57
45701;BMP280;36277;32.852;-116.998;2022-11-20T03:46:32;100392.03;;;24.56
45701;BMP280;36277;32.852;-116.998;2022-11-20T03:48:58;100388.59;;;24.54
45701;BMP280;36277;32.852;-116.998;2022-11-20T03:51:29;100392.91;;;24.56
45701;BMP280;36277;32.852;-116.998;2022-11-20T03:53:58;100393.94;;;24.55
45701;BMP280;36277;32.852;-116.998;2022-11-20T03:56:30;100386.50;;;24.56
45701;BMP280;36277;32.852;-116.998;2022-11-20T03:58:57;100399.84;;;24.52
45701;BMP280;36277;32.852;-116.998;2022-11-20T04:01:26;100400.88;;;24.51
45701;BMP280;36277;32.852;-116.998;2022-11-20T04:03:54;100406.41;;;24.51
45701;BMP280;36277;32.852;-116.998;2022-11-20T04:06:23;100405.53;;;24.51
45701;BMP280;36277;32.852;-116.998;2022-11-20T04:08:49;100405.91;;;24.48
45701;BMP280;36277;32.852;-116.998;2022-11-20T04:11:22;100407.63;;;24.49
45701;BMP280;36277;32.852;-116.998;2022-11-20T04:13:54;100414.19;;;24.48
45701;BMP280;36277;32.852;-116.998;2022-11-20T04:16:22;100410.59;;;24.47
45701;BMP280;36277;32.852;-116.998;2022-11-20T04:18:57;100411.91;;;24.51
45701;BMP280;36277;32.852;-116.998;2022-11-20T04:21:24;100414.34;;;24.46
45701;BMP280;36277;32.852;-116.998;2022-11-20T04:23:51;100417.31;;;24.45
45701;BMP280;36277;32.852;-116.998;2022-11-20T04:26:19;100421.78;;;24.46
45701;BMP280;36277;32.852;-116.998;2022-11-20T04:28:45;100423.69;;;24.45
45701;BMP280;36277;32.852;-116.998;2022-11-20T04:31:17;100436.25;;;24.48
45701;BMP280;36277;32.852;-116.998;2022-11-20T04:33:44;100433.50;;;24.48
45701;BMP280;36277;32.852;-116.998;2022-11-20T04:38:38;100437.13;;;24.48
45701;BMP280;36277;32.852;-116.998;2022-11-20T04:41:08;100443.50;;;24.49
45701;BMP280;36277;32.852;-116.998;2022-11-20T04:43:37;100447.47;;;24.46
45701;BMP280;36277;32.852;-116.998;2022-11-20T04:46:03;100450.13;;;24.03
45701;BMP280;36277;32.852;-116.998;2022-11-20T04:48:29;100451.88;;;24.18
45701;BMP280;36277;32.852;-116.998;2022-11-20T04:50:56;100448.28;;;24.18
45701;BMP280;36277;32.852;-116.998;2022-11-20T04:53:23;100441.88;;;24.17
45701;BMP280;36277;32.852;-116.998;2022-11-20T04:55:49;100448.44;;;24.16
45701;BMP280;36277;32.852;-116.998;2022-11-20T04:58:16;100453.81;;;24.18
45701;BMP280;36277;32.852;-116.998;2022-11-20T05:00:42;100456.56;;;24.18
45701;BMP280;36277;32.852;-116.998;2022-11-20T05:03:09;100454.63;;;24.18
45701;BMP280;36277;32.852;-116.998;2022-11-20T05:05:35;100456.34;;;24.19
45701;BMP280;36277;32.852;-116.998;2022-11-20T05:08:01;100458.28;;;24.19
45701;BMP280;36277;32.852;-116.998;2022-11-20T05:10:28;100471.66;;;24.22
45701;BMP280;36277;32.852;-116.998;2022-11-20T05:12:54;100472.91;;;24.19
45701;BMP280;36277;32.852;-116.998;2022-11-20T05:15:20;100477.59;;;24.19
45701;BMP280;36277;32.852;-116.998;2022-11-20T05:17:51;100471.66;;;24.22
45701;BMP280;36277;32.852;-116.998;2022-11-20T05:20:18;100483.25;;;24.17
45701;BMP280;36277;32.852;-116.998;2022-11-20T05:22:44;100479.66;;;24.17
45701;BMP280;36277;32.852;-116.998;2022-11-20T05:25:11;100482.44;;;24.17
45701;BMP280;36277;32.852;-116.998;2022-11-20T05:27:37;100483.09;;;24.19
45701;BMP280;36277;32.852;-116.998;2022-11-20T05:30:04;100484.31;;;24.16
45701;BMP280;36277;32.852;-116.998;2022-11-20T05:32:31;100476.03;;;24.16
45701;BMP280;36277;32.852;-116.998;2022-11-20T05:34:57;100484.50;;;24.15
45701;BMP280;36277;32.852;-116.998;2022-11-20T05:37:23;100469.00;;;24.14
45701;BMP280;36277;32.852;-116.998;2022-11-20T05:39:49;100470.88;;;24.13
45701;BMP280;36277;32.852;-116.998;2022-11-20T05:42:16;100476.59;;;24.12
45701;BMP280;36277;32.852;-116.998;2022-11-20T05:44:58;100480.41;;;24.11
45701;BMP280;36277;32.852;-116.998;2022-11-20T05:47:26;100477.66;;;24.11
45701;BMP280;36277;32.852;-116.998;2022-11-20T05:49:52;100478.69;;;24.10
45701;BMP280;36277;32.852;-116.998;2022-11-20T05:52:19;100490.75;;;24.09
45701;BMP280;36277;32.852;-116.998;2022-11-20T05:54:45;100490.75;;;24.09
45701;BMP280;36277;32.852;-116.998;2022-11-20T05:57:11;100489.88;;;24.09
45701;BMP280;36277;32.852;-116.998;2022-11-20T05:59:38;100490.94;;;24.08
45701;BMP280;36277;32.852;-116.998;2022-11-20T06:02:04;100494.75;;;24.07
45701;BMP280;36277;32.852;-116.998;2022-11-20T06:04:30;100492.00;;;24.07
45701;BMP280;36277;32.852;-116.998;2022-11-20T06:06:56;100494.75;;;24.07
45701;BMP280;36277;32.852;-116.998;2022-11-20T06:09:22;100498.34;;;24.07
45701;BMP280;36277;32.852;-116.998;2022-11-20T06:11:49;100497.69;;;24.05
45701;BMP280;36277;32.852;-116.998;2022-11-20T06:14:15;100502.16;;;24.06
45701;BMP280;36277;32.852;-116.998;2022-11-20T06:16:41;100505.78;;;24.07
45701;BMP280;36277;32.852;-116.998;2022-11-20T06:19:07;100514.06;;;24.07
45701;BMP280;36277;32.852;-116.998;2022-11-20T06:21:33;100504.91;;;24.06
45701;BMP280;36277;32.852;-116.998;2022-11-20T06:24:00;100505.09;;;24.05
45701;BMP280;36277;32.852;-116.998;2022-11-20T06:26:27;100507.00;;;24.04
45701;BMP280;36277;32.852;-116.998;2022-11-20T06:28:54;100513.75;;;24.02
45701;BMP280;36277;32.852;-116.998;2022-11-20T06:31:24;100519.25;;;24.02
45701;BMP280;36277;32.852;-116.998;2022-11-20T06:33:51;100512.19;;;23.99
45701;BMP280;36277;32.852;-116.998;2022-11-20T06:36:20;100504.97;;;23.98
45701;BMP280;36277;32.852;-116.998;2022-11-20T06:38:46;100504.28;;;23.96
45701;BMP280;36277;32.852;-116.998;2022-11-20T06:41:18;100508.13;;;23.95
45701;BMP280;36277;32.852;-116.998;2022-11-20T06:43:46;100513.13;;;23.92
45701;BMP280;36277;32.852;-116.998;2022-11-20T06:46:13;100505.88;;;23.91
45701;BMP280;36277;32.852;-116.998;2022-11-20T06:48:43;100499.91;;;23.87
45701;BMP280;36277;32.852;-116.998;2022-11-20T06:51:10;100509.22;;;23.86
45701;BMP280;36277;32.852;-116.998;2022-11-20T06:53:37;100513.00;;;23.85
45701;BMP280;36277;32.852;-116.998;2022-11-20T06:56:03;100515.09;;;23.83
45701;BMP280;36277;32.852;-116.998;2022-11-20T06:58:32;100511.47;;;23.83
45701;BMP280;36277;32.852;-116.998;2022-11-20T07:01:00;100513.56;;;23.81
45701;BMP280;36277;32.852;-116.998;2022-11-20T07:03:26;100526.66;;;23.79
45701;BMP280;36277;32.852;-116.998;2022-11-20T07:05:55;100509.09;;;23.80
45701;BMP280;36277;32.852;-116.998;2022-11-20T07:08:22;100517.69;;;23.77
45701;BMP280;36277;32.852;-116.998;2022-11-20T07:10:48;100522.53;;;23.75
45701;BMP280;36277;32.852;-116.998;2022-11-20T07:13:14;100524.59;;;23.73
45701;BMP280;36277;32.852;-116.998;2022-11-20T07:15:41;100524.75;;;23.71
45701;BMP280;36277;32.852;-116.998;2022-11-20T07:18:07;100509.25;;;23.70
45701;BMP280;36277;32.852;-116.998;2022-11-20T07:20:33;100520.28;;;23.70
45701;BMP280;36277;32.852;-116.998;2022-11-20T07:22:59;100521.72;;;23.66
45701;BMP280;36277;32.852;-116.998;2022-11-20T07:25:27;100526.19;;;23.67
45701;BMP280;36277;32.852;-116.998;2022-11-20T07:28:00;100525.31;;;23.67
45701;BMP280;36277;32.852;-116.998;2022-11-20T07:30:27;100526.72;;;23.63
45701;BMP280;36277;32.852;-116.998;2022-11-20T07:32:55;100526.03;;;23.61
45701;BMP280;36277;32.852;-116.998;2022-11-20T07:35:22;100530.03;;;23.58
45701;BMP280;36277;32.852;-116.998;2022-11-20T07:37:48;100523.63;;;23.58
45701;BMP280;36277;32.852;-116.998;2022-11-20T07:40:15;100528.50;;;23.56
45701;BMP280;36277;32.852;-116.998;2022-11-20T07:42:52;100517.47;;;23.56
45701;BMP280;36277;32.852;-116.998;2022-11-20T07:45:20;100520.75;;;23.51
45701;BMP280;36277;32.852;-116.998;2022-11-20T07:47:47;100517.31;;;23.49
45701;BMP280;36277;32.852;-116.998;2022-11-20T07:50:14;100520.25;;;23.48
45701;BMP280;36277;32.852;-116.998;2022-11-20T07:52:40;100524.22;;;23.45
45701;BMP280;36277;32.852;-116.998;2022-11-20T07:55:08;100520.63;;;23.45
45701;BMP280;36277;32.852;-116.998;2022-11-20T07:57:34;100526.34;;;23.43
45701;BMP280;36277;32.852;-116.998;2022-11-20T08:00:01;100522.00;;;23.41
45701;BMP280;36277;32.852;-116.998;2022-11-20T08:02:28;100511.34;;;23.38
45701;BMP280;36277;32.852;-116.998;2022-11-20T08:04:54;100524.28;;;23.37
45701;BMP280;36277;32.852;-116.998;2022-11-20T08:07:21;100510.88;;;23.34
45701;BMP280;36277;32.852;-116.998;2022-11-20T08:09:47;100510.00;;;23.34
45701;BMP280;36277;32.852;-116.998;2022-11-20T08:12:20;100505.38;;;23.34
45701;BMP280;36277;32.852;-116.998;2022-11-20T08:15:06;100517.09;;;23.28
45701;BMP280;36277;32.852;-116.998;2022-11-20T08:17:32;100523.47;;;23.29
45701;BMP280;36277;32.852;-116.998;2022-11-20T08:19:58;100527.41;;;23.26
45701;BMP280;36277;32.852;-116.998;2022-11-20T08:22:25;100518.47;;;23.24
45701;BMP280;36277;32.852;-116.998;2022-11-20T08:24:51;100518.47;;;23.24
45701;BMP280;36277;32.852;-116.998;2022-11-20T08:27:17;100517.63;;;23.24
45701;BMP280;36277;32.852;-116.998;2022-11-20T08:29:43;100510.56;;;23.21
45701;BMP280;36277;32.852;-116.998;2022-11-20T08:32:10;100512.00;;;23.17
45701;BMP280;36277;32.852;-116.998;2022-11-20T08:34:36;100505.63;;;23.17
45701;BMP280;36277;32.852;-116.998;2022-11-20T08:37:03;100516.81;;;23.15
45701;BMP280;36277;32.852;-116.998;2022-11-20T08:39:29;100505.13;;;23.13
45701;BMP280;36277;32.852;-116.998;2022-11-20T08:41:55;100512.69;;;23.11
45701;BMP280;36277;32.852;-116.998;2022-11-20T08:44:22;100519.41;;;23.09
45701;BMP280;36277;32.852;-116.998;2022-11-20T08:46:48;100517.84;;;23.06
45701;BMP280;36277;32.852;-116.998;2022-11-20T08:49:14;100531.59;;;23.06
45701;BMP280;36277;32.852;-116.998;2022-11-20T08:51:42;100526.44;;;23.03
45701;BMP280;36277;32.852;-116.998;2022-11-20T08:54:08;100530.44;;;23.01
45701;BMP280;36277;32.852;-116.998;2022-11-20T08:56:34;100525.97;;;23.00
45701;BMP280;36277;32.852;-116.998;2022-11-20T08:59:01;100525.28;;;22.98
45701;BMP280;36277;32.852;-116.998;2022-11-20T09:01:28;100527.16;;;22.98
45701;BMP280;36277;32.852;-116.998;2022-11-20T09:03:58;100526.31;;;22.97
45701;BMP280;36277;32.852;-116.998;2022-11-20T09:06:25;100531.31;;;22.94
45701;BMP280;36277;32.852;-116.998;2022-11-20T09:08:55;100533.38;;;22.92
45701;BMP280;36277;32.852;-116.998;2022-11-20T09:11:22;100532.88;;;22.88
45701;BMP280;36277;32.852;-116.998;2022-11-20T09:13:49;100534.09;;;22.86
45701;BMP280;36277;32.852;-116.998;2022-11-20T09:16:15;100532.38;;;22.85
45701;BMP280;36277;32.852;-116.998;2022-11-20T09:18:41;100523.44;;;22.83
45701;BMP280;36277;32.852;-116.998;2022-11-20T09:21:12;100528.94;;;22.83
45701;BMP280;36277;32.852;-116.998;2022-11-20T09:23:39;100531.00;;;22.81
45701;BMP280;36277;32.852;-116.998;2022-11-20T09:26:09;100537.53;;;22.80
45701;BMP280;36277;32.852;-116.998;2022-11-20T09:28:35;100535.13;;;22.77
45701;BMP280;36277;32.852;-116.998;2022-11-20T09:31:05;100535.13;;;22.77
45701;BMP280;36277;32.852;-116.998;2022-11-20T09:33:32;100524.66;;;22.72
45701;BMP280;36277;32.852;-116.998;2022-11-20T09:35:58;100527.41;;;22.72
45701;BMP280;36277;32.852;-116.998;2022-11-20T09:38:24;100528.59;;;22.70
45701;BMP280;36277;32.852;-116.998;2022-11-20T09:41:05;100529.63;;;22.69
45701;BMP280;36277;32.852;-116.998;2022-11-20T09:46:15;100526.03;;;22.68
45701;BMP280;36277;32.852;-116.998;2022-11-20T09:54:23;100521.56;;;22.59
45701;BMP280;36277;32.852;-116.998;2022-11-20T09:56:59;100524.50;;;22.58
45701;BMP280;36277;32.852;-116.998;2022-11-20T09:59:39;100539.13;;;22.58
45701;BMP280;36277;32.852;-116.998;2022-11-20T10:02:17;100527.25;;;22.58
45701;BMP280;36277;32.852;-116.998;2022-11-20T10:05:00;100523.84;;;22.56
45701;BMP280;36277;32.852;-116.998;2022-11-20T10:10:36;100509.03;;;22.49
45701;BMP280;36277;32.852;-116.998;2022-11-20T10:18:48;100520.72;;;22.43
45701;BMP280;36277;32.852;-116.998;2022-11-20T10:21:52;100511.81;;;22.41
45701;BMP280;36277;32.852;-116.998;2022-11-20T10:24:44;100506.66;;;22.38
45701;BMP280;36277;32.852;-116.998;2022-11-20T10:30:19;100507.47;;;22.30
45701;BMP280;36277;32.852;-116.998;2022-11-20T10:33:03;100498.88;;;22.33
45701;BMP280;36277;32.852;-116.998;2022-11-20T10:35:50;100503.88;;;22.30
45701;BMP280;36277;32.852;-116.998;2022-11-20T10:38:23;100502.16;;;22.29
45701;BMP280;36277;32.852;-116.998;2022-11-20T10:40:57;100506.63;;;22.30
45701;BMP280;36277;32.852;-116.998;2022-11-20T10:43:46;100494.44;;;22.24
45701;BMP280;36277;32.852;-116.998;2022-11-20T10:46:17;100506.97;;;22.27
45701;BMP280;36277;32.852;-116.998;2022-11-20T10:48:45;100511.78;;;22.25
45701;BMP280;36277;32.852;-116.998;2022-11-20T10:56:42;100510.41;;;22.21
45701;BMP280;36277;32.852;-116.998;2022-11-20T11:02:21;100523.47;;;22.19
45701;BMP280;36277;32.852;-116.998;2022-11-20T11:04:50;100521.25;;;22.14
45701;BMP280;36277;32.852;-116.998;2022-11-20T11:07:22;100523.84;;;22.16
45701;BMP280;36277;32.852;-116.998;2022-11-20T11:09:52;100536.91;;;22.14
45701;BMP280;36277;32.852;-116.998;2022-11-20T11:12:20;100525.91;;;22.14
45701;BMP280;36277;32.852;-116.998;2022-11-20T11:14:53;100520.41;;;22.14
45701;BMP280;36277;32.852;-116.998;2022-11-20T11:17:33;100533.47;;;22.12
45701;BMP280;36277;32.852;-116.998;2022-11-20T11:20:16;100532.78;;;22.10
45701;BMP280;36277;32.852;-116.998;2022-11-20T11:23:03;100536.00;;;22.05
45701;BMP280;36277;32.852;-116.998;2022-11-20T11:25:35;100532.41;;;22.05
45701;BMP280;36277;32.852;-116.998;2022-11-20T11:28:05;100529.84;;;22.03
45701;BMP280;36277;32.852;-116.998;2022-11-20T11:30:46;100523.81;;;22.00
45701;BMP280;36277;32.852;-116.998;2022-11-20T11:33:27;100534.66;;;22.01
45701;BMP280;36277;32.852;-116.998;2022-11-20T11:35:56;100529.66;;;21.97
45701;BMP280;36277;32.852;-116.998;2022-11-20T11:38:39;100527.94;;;21.96
45701;BMP280;36277;32.852;-116.998;2022-11-20T11:41:09;100525.38;;;21.94
45701;BMP280;36277;32.852;-116.998;2022-11-20T11:43:37;100529.16;;;21.93
45701;BMP280;36277;32.852;-116.998;2022-11-20T11:46:30;100526.72;;;21.90
45701;BMP280;36277;32.852;-116.998;2022-11-20T11:49:11;100526.22;;;21.87
45701;BMP280;36277;32.852;-116.998;2022-11-20T11:52:09;100521.06;;;21.84
45701;BMP280;36277;32.852;-116.998;2022-11-20T11:54:58;100531.19;;;21.84
45701;BMP280;36277;32.852;-116.998;2022-11-20T12:00:45;100529.97;;;21.78
45701;BMP280;36277;32.852;-116.998;2022-11-20T12:03:37;100531.69;;;21.79
45701;BMP280;36277;32.852;-116.998;2022-11-20T12:06:14;100539.25;;;21.77
45701;BMP280;36277;32.852;-116.998;2022-11-20T12:08:52;100517.28;;;21.77
45701;BMP280;36277;32.852;-116.998;2022-11-20T12:11:49;100529.81;;;21.72
45701;BMP280;36277;32.852;-116.998;2022-11-20T12:14:33;100537.84;;;21.73
45701;BMP280;36277;32.852;-116.998;2022-11-20T12:17:03;100534.41;;;21.71
45701;BMP280;36277;32.852;-116.998;2022-11-20T12:19:31;100543.53;;;21.72
45701;BMP280;36277;32.852;-116.998;2022-11-20T12:25:23;100536.84;;;21.66
45701;BMP280;36277;32.852;-116.998;2022-11-20T12:36:32;100537.50;;;21.60
45701;BMP280;36277;32.852;-116.998;2022-11-20T12:41:41;100545.34;;;21.55
45701;BMP280;36277;32.852;-116.998;2022-11-20T12:47:31;100543.63;;;21.54
45701;BMP280;36277;32.852;-116.998;2022-11-20T12:50:21;100538.47;;;21.51
45701;BMP280;36277;32.852;-116.998;2022-11-20T12:53:21;100547.03;;;21.48
45701;BMP280;36277;32.852;-116.998;2022-11-20T12:56:17;100551.81;;;21.46
45701;BMP280;36277;32.852;-116.998;2022-11-20T13:04:42;100556.97;;;21.41
45701;BMP280;36277;32.852;-116.998;2022-11-20T13:07:13;100558.84;;;21.41
45701;BMP280;36277;32.852;-116.998;2022-11-20T13:09:46;100556.81;;;21.43
45701;BMP280;36277;32.852;-116.998;2022-11-20T13:12:40;100560.91;;;21.39
45701;BMP280;36277;32.852;-116.998;2022-11-20T13:15:40;100562.13;;;21.36
45701;BMP280;36277;32.852;-116.998;2022-11-20T13:18:11;100559.50;;;21.35
45701;BMP280;36277;32.852;-116.998;2022-11-20T13:20:43;100566.59;;;21.37
45701;BMP280;36277;32.852;-116.998;2022-11-20T13:23:10;100570.69;;;21.33
45701;BMP280;36277;32.852;-116.998;2022-11-20T13:25:40;100572.22;;;21.36
45701;BMP280;36277;32.852;-116.998;2022-11-20T13:30:47;100569.78;;;21.33
45701;BMP280;36277;32.852;-116.998;2022-11-20T13:33:37;100568.25;;;21.30
45701;BMP280;36277;32.852;-116.998;2022-11-20T13:36:24;100574.94;;;21.28
45701;BMP280;36277;32.852;-116.998;2022-11-20T13:38:53;100568.91;;;21.24
45701;BMP280;36277;32.852;-116.998;2022-11-20T13:41:36;100561.56;;;21.25
45701;BMP280;36277;32.852;-116.998;2022-11-20T13:44:39;100568.53;;;21.19
45701;BMP280;36277;32.852;-116.998;2022-11-20T13:47:25;100564.78;;;21.20
45701;BMP280;36277;32.852;-116.998;2022-11-20T13:49:54;100578.81;;;21.17
45701;BMP280;36277;32.852;-116.998;2022-11-20T13:54:52;100581.41;;;21.19
45701;BMP280;36277;32.852;-116.998;2022-11-20T14:00:14;100589.78;;;21.17
45701;BMP280;36277;32.852;-116.998;2022-11-20T14:02:42;100598.38;;;21.14
45701;BMP280;36277;32.852;-116.998;2022-11-20T14:05:19;100605.56;;;21.15
45701;BMP280;36277;32.852;-116.998;2022-11-20T14:07:48;100607.66;;;21.13
45701;BMP280;36277;32.852;-116.998;2022-11-20T14:10:27;100616.72;;;21.14
45701;BMP280;36277;32.852;-116.998;2022-11-20T14:12:54;100624.44;;;21.10
45701;BMP280;36277;32.852;-116.998;2022-11-20T14:15:32;100622.22;;;21.14
45701;BMP280;36277;32.852;-116.998;2022-11-20T14:18:00;100619.97;;;21.09
45701;BMP280;36277;32.852;-116.998;2022-11-20T14:20:38;100628.34;;;21.08
45701;BMP280;36277;32.852;-116.998;2022-11-20T14:23:04;100630.25;;;21.07
45701;BMP280;36277;32.852;-116.998;2022-11-20T14:25:35;100630.25;;;21.07
45701;BMP280;36277;32.852;-116.998;2022-11-20T14:28:02;100631.97;;;21.08
45701;BMP280;36277;32.852;-116.998;2022-11-20T14:33:05;100643.25;;;21.05
45701;BMP280;36277;32.852;-116.998;2022-11-20T14:35:35;100643.09;;;21.07
45701;BMP280;36277;32.852;-116.998;2022-11-20T14:38:03;100656.09;;;21.05
45701;BMP280;36277;32.852;-116.998;2022-11-20T14:40:32;100657.00;;;21.05
45701;BMP280;36277;32.852;-116.998;2022-11-20T14:43:01;100656.47;;;21.02
45701;BMP280;36277;32.852;-116.998;2022-11-20T14:45:28;100645.50;;;21.02
45701;BMP280;36277;32.852;-116.998;2022-11-20T14:47:57;100651.81;;;21.02
45701;BMP280;36277;32.852;-116.998;2022-11-20T14:50:28;100654.38;;;21.04
45701;BMP280;36277;32.852;-116.998;2022-11-20T14:52:57;100661.59;;;21.05